sensor_id;sensor_type;location;lat;lon;timestamp;temperature;humidity
10678;DHT22;5387;48.722;9.110;2023-10-31T00:00:05;10.30;99.90
10678;DHT22;5387;48.722;9.110;2023-10-31T00:02:32;10.30;99.90
10678;DHT22;5387;48.722;9.110;2023-10-31T00:04:58;10.30;99.90
10678;DHT22;5387;48.722;9.110;2023-10-31T00:07:27;10.20;99.90
10678;DHT22;5387;48.722;9.110;2023-10-31T00:09:54;10.20;99.90
10678;DHT22;5387;48.722;9.110;2023-10-31T00:12:21;10.20;99.90
10678;DHT22;5387;48.722;9.110;2023-10-31T00:14:48;10.30;99.90
10678;DHT22;5387;48.722;9.110;2023-10-31T00:17:15;10.20;99.90
10678;DHT22;5387;48.722;9.110;2023-10-31T00:19:42;10.20;99.90
10678;DHT22;5387;48.722;9.110;2023-10-31T00:22:10;10.20;99.90
10678;DHT22;5387;48.722;9.110;2023-10-31T00:24:38;10.20;99.90
10678;DHT22;5387;48.722;9.110;2023-10-31T00:27:04;10.20;99.90
10678;DHT22;5387;48.722;9.110;2023-10-31T00:29:31;10.20;99.90
10678;DHT22;5387;48.722;9.110;2023-10-31T00:31:58;10.20;99.90
10678;DHT22;5387;48.722;9.110;2023-10-31T00:34:25;10.20;99.90
10678;DHT22;5387;48.722;9.110;2023-10-31T00:36:51;10.20;99.90
10678;DHT22;5387;48.722;9.110;2023-10-31T00:39:18;10.10;99.90
10678;DHT22;5387;48.722;9.110;2023-10-31T00:41:46;10.20;99.90
10678;DHT22;5387;48.722;9.110;2023-10-31T00:44:13;10.10;99.90
10678;DHT22;5387;48.722;9.110;2023-10-31T00:46:40;10.10;99.90
10678;DHT22;5387;48.722;9.110;2023-10-31T00:49:07;10.10;99.90
10678;DHT22;5387;48.722;9.110;2023-10-31T00:51:33;10.10;99.90
10678;DHT22;5387;48.722;9.110;2023-10-31T00:54:00;10.10;99.90
10678;DHT22;5387;48.722;9.110;2023-10-31T00:56:27;10.10;99.90
10678;DHT22;5387;48.722;9.110;2023-10-31T00:58:55;10.00;99.90
10678;DHT22;5387;48.722;9.110;2023-10-31T01:01:22;10.00;99.90
10678;DHT22;5387;48.722;9.110;2023-10-31T01:03:49;9.90;99.90
10678;DHT22;5387;48.722;9.110;2023-10-31T01:06:15;9.90;99.90
10678;DHT22;5387;48.722;9.110;2023-10-31T01:08:42;9.80;99.90
10678;DHT22;5387;48.722;9.110;2023-10-31T01:11:09;9.70;99.90
10678;DHT22;5387;48.722;9.110;2023-10-31T01:13:36;9.60;99.90
10678;DHT22;5387;48.722;9.110;2023-10-31T01:16:04;9.60;99.90
10678;DHT22;5387;48.722;9.110;2023-10-31T01:18:31;9.40;99.90
10678;DHT22;5387;48.722;9.110;2023-10-31T01:20:58;9.40;99.90
10678;DHT22;5387;48.722;9.110;2023-10-31T01:23:25;9.30;99.90
10678;DHT22;5387;48.722;9.110;2023-10-31T01:25:52;9.20;99.90
10678;DHT22;5387;48.722;9.110;2023-10-31T01:28:19;9.20;99.90
10678;DHT22;5387;48.722;9.110;2023-10-31T01:30:46;9.10;99.90
10678;DHT22;5387;48.722;9.110;2023-10-31T01:33:14;9.30;99.90
10678;DHT22;5387;48.722;9.110;2023-10-31T01:35:41;9.00;99.90
10678;DHT22;5387;48.722;9.110;2023-10-31T01:38:07;9.00;99.90
10678;DHT22;5387;48.722;9.110;2023-10-31T01:40:34;9.00;99.90
10678;DHT22;5387;48.722;9.110;2023-10-31T01:43:01;9.00;99.90
10678;DHT22;5387;48.722;9.110;2023-10-31T01:45:28;9.00;99.90
10678;DHT22;5387;48.722;9.110;2023-10-31T01:47:55;9.00;99.90
10678;DHT22;5387;48.722;9.110;2023-10-31T01:50:23;9.10;99.90
10678;DHT22;5387;48.722;9.110;2023-10-31T01:52:50;9.20;99.90
10678;DHT22;5387;48.722;9.110;2023-10-31T01:55:18;9.20;99.90
10678;DHT22;5387;48.722;9.110;2023-10-31T01:57:46;9.20;99.90
10678;DHT22;5387;48.722;9.110;2023-10-31T02:00:14;9.20;99.90
10678;DHT22;5387;48.722;9.110;2023-10-31T02:02:41;9.30;99.90
10678;DHT22;5387;48.722;9.110;2023-10-31T02:05:09;9.30;99.90
10678;DHT22;5387;48.722;9.110;2023-10-31T02:07:37;9.30;99.90
10678;DHT22;5387;48.722;9.110;2023-10-31T02:10:05;9.30;99.90
10678;DHT22;5387;48.722;9.110;2023-10-31T02:12:33;9.30;99.90
10678;DHT22;5387;48.722;9.110;2023-10-31T02:15:00;9.20;99.90
10678;DHT22;5387;48.722;9.110;2023-10-31T02:17:27;9.20;99.90
10678;DHT22;5387;48.722;9.110;2023-10-31T02:19:54;9.30;99.90
10678;DHT22;5387;48.722;9.110;2023-10-31T02:22:22;9.20;99.90
10678;DHT22;5387;48.722;9.110;2023-10-31T02:24:49;9.20;99.90
10678;DHT22;5387;48.722;9.110;2023-10-31T02:27:16;9.30;99.90
10678;DHT22;5387;48.722;9.110;2023-10-31T02:29:43;9.30;99.90
10678;DHT22;5387;48.722;9.110;2023-10-31T02:32:10;9.30;99.90
10678;DHT22;5387;48.722;9.110;2023-10-31T02:34:36;9.30;99.90
10678;DHT22;5387;48.722;9.110;2023-10-31T02:37:03;9.20;99.90
10678;DHT22;5387;48.722;9.110;2023-10-31T02:39:32;9.20;99.90
10678;DHT22;5387;48.722;9.110;2023-10-31T02:41:59;9.20;99.90
10678;DHT22;5387;48.722;9.110;2023-10-31T02:44:26;9.20;99.90
10678;DHT22;5387;48.722;9.110;2023-10-31T02:46:53;9.20;99.90
10678;DHT22;5387;48.722;9.110;2023-10-31T02:49:20;9.20;99.90
10678;DHT22;5387;48.722;9.110;2023-10-31T02:51:46;9.40;99.90
10678;DHT22;5387;48.722;9.110;2023-10-31T02:54:13;9.30;99.90
10678;DHT22;5387;48.722;9.110;2023-10-31T02:56:41;9.30;99.90
10678;DHT22;5387;48.722;9.110;2023-10-31T02:59:08;9.30;99.90
10678;DHT22;5387;48.722;9.110;2023-10-31T03:01:35;9.30;99.90
10678;DHT22;5387;48.722;9.110;2023-10-31T03:04:03;9.40;99.90
10678;DHT22;5387;48.722;9.110;2023-10-31T03:06:30;9.30;99.90
10678;DHT22;5387;48.722;9.110;2023-10-31T03:08:56;9.30;99.90
10678;DHT22;5387;48.722;9.110;2023-10-31T03:11:24;9.20;99.90
10678;DHT22;5387;48.722;9.110;2023-10-31T03:13:52;9.20;99.90
10678;DHT22;5387;48.722;9.110;2023-10-31T03:16:21;9.20;99.90
10678;DHT22;5387;48.722;9.110;2023-10-31T03:18:48;9.10;99.90
10678;DHT22;5387;48.722;9.110;2023-10-31T03:21:15;9.10;99.90
10678;DHT22;5387;48.722;9.110;2023-10-31T03:23:42;9.20;99.90
10678;DHT22;5387;48.722;9.110;2023-10-31T03:26:09;9.10;99.90
10678;DHT22;5387;48.722;9.110;2023-10-31T03:28:36;9.10;99.90
10678;DHT22;5387;48.722;9.110;2023-10-31T03:31:04;9.10;99.90
10678;DHT22;5387;48.722;9.110;2023-10-31T03:33:31;9.00;99.90
10678;DHT22;5387;48.722;9.110;2023-10-31T03:35:58;9.00;99.90
10678;DHT22;5387;48.722;9.110;2023-10-31T03:38:24;9.10;99.90
10678;DHT22;5387;48.722;9.110;2023-10-31T03:40:51;9.00;99.90
10678;DHT22;5387;48.722;9.110;2023-10-31T03:43:18;9.00;99.90
10678;DHT22;5387;48.722;9.110;2023-10-31T03:45:46;8.90;99.90
10678;DHT22;5387;48.722;9.110;2023-10-31T03:48:16;8.90;99.90
10678;DHT22;5387;48.722;9.110;2023-10-31T03:50:43;8.90;99.90
10678;DHT22;5387;48.722;9.110;2023-10-31T03:53:09;8.80;99.90
10678;DHT22;5387;48.722;9.110;2023-10-31T03:55:36;8.80;99.90
10678;DHT22;5387;48.722;9.110;2023-10-31T03:58:03;8.80;99.90
10678;DHT22;5387;48.722;9.110;2023-10-31T04:00:29;8.80;99.90
10678;DHT22;5387;48.722;9.110;2023-10-31T04:02:56;8.80;99.90
10678;DHT22;5387;48.722;9.110;2023-10-31T04:05:24;8.70;99.90
10678;DHT22;5387;48.722;9.110;2023-10-31T04:07:51;8.90;99.90
10678;DHT22;5387;48.722;9.110;2023-10-31T04:10:18;8.90;99.90
10678;DHT22;5387;48.722;9.110;2023-10-31T04:12:46;9.00;99.90
10678;DHT22;5387;48.722;9.110;2023-10-31T04:15:12;8.90;99.90
10678;DHT22;5387;48.722;9.110;2023-10-31T04:17:39;9.00;99.90
10678;DHT22;5387;48.722;9.110;2023-10-31T04:20:07;9.10;99.90
10678;DHT22;5387;48.722;9.110;2023-10-31T04:22:35;9.10;99.90
10678;DHT22;5387;48.722;9.110;2023-10-31T04:25:02;9.10;99.90
10678;DHT22;5387;48.722;9.110;2023-10-31T04:27:29;9.10;99.90
10678;DHT22;5387;48.722;9.110;2023-10-31T04:29:56;9.20;99.90
10678;DHT22;5387;48.722;9.110;2023-10-31T04:32:23;9.10;99.90
10678;DHT22;5387;48.722;9.110;2023-10-31T04:34:50;9.00;99.90
10678;DHT22;5387;48.722;9.110;2023-10-31T04:37:17;9.00;99.90
10678;DHT22;5387;48.722;9.110;2023-10-31T04:39:45;9.10;99.90
10678;DHT22;5387;48.722;9.110;2023-10-31T04:42:12;9.00;99.90
10678;DHT22;5387;48.722;9.110;2023-10-31T04:44:39;8.90;99.90
10678;DHT22;5387;48.722;9.110;2023-10-31T04:47:05;8.90;99.90
10678;DHT22;5387;48.722;9.110;2023-10-31T04:49:34;8.80;99.90
10678;DHT22;5387;48.722;9.110;2023-10-31T04:52:02;8.70;99.90
10678;DHT22;5387;48.722;9.110;2023-10-31T04:54:28;8.80;99.90
10678;DHT22;5387;48.722;9.110;2023-10-31T04:56:56;8.70;99.90
10678;DHT22;5387;48.722;9.110;2023-10-31T04:59:23;8.70;99.90
10678;DHT22;5387;48.722;9.110;2023-10-31T05:01:51;8.70;99.90
10678;DHT22;5387;48.722;9.110;2023-10-31T05:04:17;8.60;99.90
10678;DHT22;5387;48.722;9.110;2023-10-31T05:06:44;8.60;99.90
10678;DHT22;5387;48.722;9.110;2023-10-31T05:09:11;8.60;99.90
10678;DHT22;5387;48.722;9.110;2023-10-31T05:11:38;8.60;99.90
10678;DHT22;5387;48.722;9.110;2023-10-31T05:14:08;8.60;99.90
10678;DHT22;5387;48.722;9.110;2023-10-31T05:16:39;8.80;99.90
10678;DHT22;5387;48.722;9.110;2023-10-31T05:19:07;8.60;99.90
10678;DHT22;5387;48.722;9.110;2023-10-31T05:21:33;8.60;99.90
10678;DHT22;5387;48.722;9.110;2023-10-31T05:24:00;8.60;99.90
10678;DHT22;5387;48.722;9.110;2023-10-31T05:26:27;8.60;99.90
10678;DHT22;5387;48.722;9.110;2023-10-31T05:28:55;8.60;99.90
10678;DHT22;5387;48.722;9.110;2023-10-31T05:31:23;8.60;99.90
10678;DHT22;5387;48.722;9.110;2023-10-31T05:33:51;8.50;99.90
10678;DHT22;5387;48.722;9.110;2023-10-31T05:36:18;8.60;99.90
10678;DHT22;5387;48.722;9.110;2023-10-31T05:38:45;8.60;99.90
10678;DHT22;5387;48.722;9.110;2023-10-31T05:41:12;8.60;99.90
10678;DHT22;5387;48.722;9.110;2023-10-31T05:43:39;8.60;99.90
10678;DHT22;5387;48.722;9.110;2023-10-31T05:46:06;8.60;99.90
10678;DHT22;5387;48.722;9.110;2023-10-31T05:48:37;8.60;99.90
10678;DHT22;5387;48.722;9.110;2023-10-31T05:51:04;8.60;99.90
10678;DHT22;5387;48.722;9.110;2023-10-31T05:53:31;8.60;99.90
10678;DHT22;5387;48.722;9.110;2023-10-31T05:55:59;8.50;99.90
10678;DHT22;5387;48.722;9.110;2023-10-31T05:58:26;8.60;99.90
10678;DHT22;5387;48.722;9.110;2023-10-31T06:00:53;8.50;99.90
10678;DHT22;5387;48.722;9.110;2023-10-31T06:03:19;8.50;99.90
10678;DHT22;5387;48.722;9.110;2023-10-31T06:05:47;8.40;99.90
10678;DHT22;5387;48.722;9.110;2023-10-31T06:08:14;8.50;99.90
10678;DHT22;5387;48.722;9.110;2023-10-31T06:10:41;8.50;99.90
10678;DHT22;5387;48.722;9.110;2023-10-31T06:13:08;8.50;99.90
10678;DHT22;5387;48.722;9.110;2023-10-31T06:15:35;8.50;99.90
10678;DHT22;5387;48.722;9.110;2023-10-31T06:18:02;8.60;99.90
10678;DHT22;5387;48.722;9.110;2023-10-31T06:20:29;8.50;99.90
10678;DHT22;5387;48.722;9.110;2023-10-31T06:22:59;8.50;99.90
10678;DHT22;5387;48.722;9.110;2023-10-31T06:25:25;8.40;99.90
10678;DHT22;5387;48.722;9.110;2023-10-31T06:27:52;8.40;99.90
10678;DHT22;5387;48.722;9.110;2023-10-31T06:30:19;8.40;99.90
10678;DHT22;5387;48.722;9.110;2023-10-31T06:32:46;8.40;99.90
10678;DHT22;5387;48.722;9.110;2023-10-31T06:35:13;8.40;99.90
10678;DHT22;5387;48.722;9.110;2023-10-31T06:37:40;8.40;99.90
10678;DHT22;5387;48.722;9.110;2023-10-31T06:40:09;8.40;99.90
10678;DHT22;5387;48.722;9.110;2023-10-31T06:42:36;8.40;99.90
10678;DHT22;5387;48.722;9.110;2023-10-31T06:45:03;8.40;99.90
10678;DHT22;5387;48.722;9.110;2023-10-31T06:47:30;8.40;99.90
10678;DHT22;5387;48.722;9.110;2023-10-31T06:49:57;8.40;99.90
10678;DHT22;5387;48.722;9.110;2023-10-31T06:52:23;8.50;99.90
10678;DHT22;5387;48.722;9.110;2023-10-31T06:54:50;8.60;99.90
10678;DHT22;5387;48.722;9.110;2023-10-31T06:57:18;8.60;99.90
10678;DHT22;5387;48.722;9.110;2023-10-31T06:59:45;8.70;99.90
10678;DHT22;5387;48.722;9.110;2023-10-31T07:02:12;8.80;99.90
10678;DHT22;5387;48.722;9.110;2023-10-31T07:04:39;8.90;99.90
10678;DHT22;5387;48.722;9.110;2023-10-31T07:07:06;8.90;99.90
10678;DHT22;5387;48.722;9.110;2023-10-31T07:09:33;9.00;99.90
10678;DHT22;5387;48.722;9.110;2023-10-31T07:12:00;8.90;99.90
10678;DHT22;5387;48.722;9.110;2023-10-31T07:14:28;9.00;99.90
10678;DHT22;5387;48.722;9.110;2023-10-31T07:16:56;9.00;99.90
10678;DHT22;5387;48.722;9.110;2023-10-31T07:19:23;9.00;99.90
10678;DHT22;5387;48.722;9.110;2023-10-31T07:21:50;9.00;99.90
10678;DHT22;5387;48.722;9.110;2023-10-31T07:24:16;9.10;99.90
10678;DHT22;5387;48.722;9.110;2023-10-31T07:26:44;9.10;99.90
10678;DHT22;5387;48.722;9.110;2023-10-31T07:29:10;9.10;99.90
10678;DHT22;5387;48.722;9.110;2023-10-31T07:31:39;9.10;99.90
10678;DHT22;5387;48.722;9.110;2023-10-31T07:34:06;9.30;99.90
10678;DHT22;5387;48.722;9.110;2023-10-31T07:36:32;9.30;99.90
10678;DHT22;5387;48.722;9.110;2023-10-31T07:39:00;9.40;99.90
10678;DHT22;5387;48.722;9.110;2023-10-31T07:41:27;9.60;99.90
10678;DHT22;5387;48.722;9.110;2023-10-31T07:43:54;9.40;99.90
10678;DHT22;5387;48.722;9.110;2023-10-31T07:46:21;9.40;99.90
10678;DHT22;5387;48.722;9.110;2023-10-31T07:48:50;9.40;99.90
10678;DHT22;5387;48.722;9.110;2023-10-31T07:51:16;9.30;99.90
10678;DHT22;5387;48.722;9.110;2023-10-31T07:53:43;9.20;99.90
10678;DHT22;5387;48.722;9.110;2023-10-31T07:56:15;9.40;99.90
10678;DHT22;5387;48.722;9.110;2023-10-31T07:58:42;9.50;99.90
10678;DHT22;5387;48.722;9.110;2023-10-31T08:01:09;9.50;99.90
10678;DHT22;5387;48.722;9.110;2023-10-31T08:03:36;9.50;99.90
10678;DHT22;5387;48.722;9.110;2023-10-31T08:06:06;9.60;99.90
10678;DHT22;5387;48.722;9.110;2023-10-31T08:08:33;9.50;99.90
10678;DHT22;5387;48.722;9.110;2023-10-31T08:11:00;9.60;99.90
10678;DHT22;5387;48.722;9.110;2023-10-31T08:13:27;9.70;99.90
10678;DHT22;5387;48.722;9.110;2023-10-31T08:15:54;9.90;99.90
10678;DHT22;5387;48.722;9.110;2023-10-31T08:18:23;10.00;99.90
10678;DHT22;5387;48.722;9.110;2023-10-31T08:20:50;10.10;99.90
10678;DHT22;5387;48.722;9.110;2023-10-31T08:23:18;10.20;99.90
10678;DHT22;5387;48.722;9.110;2023-10-31T08:25:45;10.20;99.90
10678;DHT22;5387;48.722;9.110;2023-10-31T08:28:12;10.10;99.90
10678;DHT22;5387;48.722;9.110;2023-10-31T08:30:38;10.00;99.90
10678;DHT22;5387;48.722;9.110;2023-10-31T08:33:05;10.20;99.90
10678;DHT22;5387;48.722;9.110;2023-10-31T08:35:32;10.20;99.90
10678;DHT22;5387;48.722;9.110;2023-10-31T08:37:59;10.30;99.90
10678;DHT22;5387;48.722;9.110;2023-10-31T08:40:27;10.30;99.90
10678;DHT22;5387;48.722;9.110;2023-10-31T08:42:54;10.40;99.90
10678;DHT22;5387;48.722;9.110;2023-10-31T08:45:21;10.40;99.90
10678;DHT22;5387;48.722;9.110;2023-10-31T08:47:48;10.40;99.90
10678;DHT22;5387;48.722;9.110;2023-10-31T08:50:15;10.50;99.90
10678;DHT22;5387;48.722;9.110;2023-10-31T08:52:42;10.60;99.90
10678;DHT22;5387;48.722;9.110;2023-10-31T08:55:09;10.50;99.90
10678;DHT22;5387;48.722;9.110;2023-10-31T08:57:37;10.60;99.90
10678;DHT22;5387;48.722;9.110;2023-10-31T09:00:06;10.60;99.90
10678;DHT22;5387;48.722;9.110;2023-10-31T09:02:33;10.60;99.90
10678;DHT22;5387;48.722;9.110;2023-10-31T09:05:00;10.70;99.90
10678;DHT22;5387;48.722;9.110;2023-10-31T09:07:26;10.70;99.90
10678;DHT22;5387;48.722;9.110;2023-10-31T09:09:53;10.70;99.90
10678;DHT22;5387;48.722;9.110;2023-10-31T09:12:20;10.90;99.90
10678;DHT22;5387;48.722;9.110;2023-10-31T09:14:48;11.10;99.90
10678;DHT22;5387;48.722;9.110;2023-10-31T09:17:15;11.20;99.90
10678;DHT22;5387;48.722;9.110;2023-10-31T09:19:42;11.30;99.90
10678;DHT22;5387;48.722;9.110;2023-10-31T09:22:09;11.40;99.90
10678;DHT22;5387;48.722;9.110;2023-10-31T09:24:36;11.40;99.90
10678;DHT22;5387;48.722;9.110;2023-10-31T09:27:03;11.30;99.90
10678;DHT22;5387;48.722;9.110;2023-10-31T09:29:30;11.30;99.90
10678;DHT22;5387;48.722;9.110;2023-10-31T09:31:58;11.30;99.90
10678;DHT22;5387;48.722;9.110;2023-10-31T09:34:25;11.20;99.90
10678;DHT22;5387;48.722;9.110;2023-10-31T09:36:52;11.00;99.90
10678;DHT22;5387;48.722;9.110;2023-10-31T09:39:19;10.90;99.90
10678;DHT22;5387;48.722;9.110;2023-10-31T09:41:47;10.70;99.90
10678;DHT22;5387;48.722;9.110;2023-10-31T09:44:14;10.70;99.90
10678;DHT22;5387;48.722;9.110;2023-10-31T09:46:41;10.60;99.90
10678;DHT22;5387;48.722;9.110;2023-10-31T09:49:09;10.60;99.90
10678;DHT22;5387;48.722;9.110;2023-10-31T09:51:37;10.80;99.90
10678;DHT22;5387;48.722;9.110;2023-10-31T09:54:05;10.90;99.90
10678;DHT22;5387;48.722;9.110;2023-10-31T09:56:33;11.10;99.90
10678;DHT22;5387;48.722;9.110;2023-10-31T09:59:01;11.10;99.90
10678;DHT22;5387;48.722;9.110;2023-10-31T10:01:28;11.10;99.90
10678;DHT22;5387;48.722;9.110;2023-10-31T10:03:56;11.20;99.90
10678;DHT22;5387;48.722;9.110;2023-10-31T10:06:24;11.30;99.90
10678;DHT22;5387;48.722;9.110;2023-10-31T10:08:51;11.40;99.90
10678;DHT22;5387;48.722;9.110;2023-10-31T10:11:18;11.20;99.90
10678;DHT22;5387;48.722;9.110;2023-10-31T10:13:45;11.30;99.90
10678;DHT22;5387;48.722;9.110;2023-10-31T10:16:12;11.40;99.90
10678;DHT22;5387;48.722;9.110;2023-10-31T10:18:39;11.30;99.90
10678;DHT22;5387;48.722;9.110;2023-10-31T10:21:08;11.50;99.90
10678;DHT22;5387;48.722;9.110;2023-10-31T10:23:36;11.50;99.90
10678;DHT22;5387;48.722;9.110;2023-10-31T10:26:03;11.40;99.90
10678;DHT22;5387;48.722;9.110;2023-10-31T10:28:30;11.60;99.90
10678;DHT22;5387;48.722;9.110;2023-10-31T10:30:58;11.70;99.90
10678;DHT22;5387;48.722;9.110;2023-10-31T10:33:25;11.80;99.90
10678;DHT22;5387;48.722;9.110;2023-10-31T10:35:54;11.80;99.90
10678;DHT22;5387;48.722;9.110;2023-10-31T10:38:22;12.00;99.90
10678;DHT22;5387;48.722;9.110;2023-10-31T10:40:50;12.10;99.90
10678;DHT22;5387;48.722;9.110;2023-10-31T10:43:21;11.90;99.90
10678;DHT22;5387;48.722;9.110;2023-10-31T10:45:53;11.80;99.90
10678;DHT22;5387;48.722;9.110;2023-10-31T10:48:22;11.70;99.90
10678;DHT22;5387;48.722;9.110;2023-10-31T10:50:54;11.80;99.90
10678;DHT22;5387;48.722;9.110;2023-10-31T10:53:23;11.90;99.90
10678;DHT22;5387;48.722;9.110;2023-10-31T10:55:56;11.90;99.90
10678;DHT22;5387;48.722;9.110;2023-10-31T10:58:27;11.90;99.90
10678;DHT22;5387;48.722;9.110;2023-10-31T11:01:00;11.80;99.90
10678;DHT22;5387;48.722;9.110;2023-10-31T11:03:29;12.00;99.90
10678;DHT22;5387;48.722;9.110;2023-10-31T11:05:57;12.10;99.90
10678;DHT22;5387;48.722;9.110;2023-10-31T11:08:24;12.30;99.90
10678;DHT22;5387;48.722;9.110;2023-10-31T11:10:53;12.50;99.90
10678;DHT22;5387;48.722;9.110;2023-10-31T11:13:22;12.70;99.90
10678;DHT22;5387;48.722;9.110;2023-10-31T11:15:53;12.70;99.90
10678;DHT22;5387;48.722;9.110;2023-10-31T11:18:22;12.50;99.90
10678;DHT22;5387;48.722;9.110;2023-10-31T11:20:50;12.60;99.90
10678;DHT22;5387;48.722;9.110;2023-10-31T11:23:17;12.50;99.90
10678;DHT22;5387;48.722;9.110;2023-10-31T11:25:44;12.60;99.90
10678;DHT22;5387;48.722;9.110;2023-10-31T11:28:13;12.70;99.90
10678;DHT22;5387;48.722;9.110;2023-10-31T11:30:41;12.90;99.90
10678;DHT22;5387;48.722;9.110;2023-10-31T11:33:11;12.80;99.90
10678;DHT22;5387;48.722;9.110;2023-10-31T11:35:39;12.90;99.90
10678;DHT22;5387;48.722;9.110;2023-10-31T11:38:07;12.90;99.90
10678;DHT22;5387;48.722;9.110;2023-10-31T11:40:36;12.90;99.90
10678;DHT22;5387;48.722;9.110;2023-10-31T11:43:04;12.90;99.90
10678;DHT22;5387;48.722;9.110;2023-10-31T11:45:36;12.80;99.90
10678;DHT22;5387;48.722;9.110;2023-10-31T11:48:04;13.00;99.90
10678;DHT22;5387;48.722;9.110;2023-10-31T11:50:31;13.00;99.90
10678;DHT22;5387;48.722;9.110;2023-10-31T11:53:03;13.00;99.90
10678;DHT22;5387;48.722;9.110;2023-10-31T11:55:32;12.90;99.90
10678;DHT22;5387;48.722;9.110;2023-10-31T11:58:15;12.80;99.90
10678;DHT22;5387;48.722;9.110;2023-10-31T12:00:44;12.60;99.90
10678;DHT22;5387;48.722;9.110;2023-10-31T12:03:11;12.60;99.90
10678;DHT22;5387;48.722;9.110;2023-10-31T12:05:38;12.50;99.90
10678;DHT22;5387;48.722;9.110;2023-10-31T12:08:05;12.50;99.90
10678;DHT22;5387;48.722;9.110;2023-10-31T12:10:32;12.40;99.90
10678;DHT22;5387;48.722;9.110;2023-10-31T12:12:59;12.40;99.90
10678;DHT22;5387;48.722;9.110;2023-10-31T12:15:26;12.40;99.90
10678;DHT22;5387;48.722;9.110;2023-10-31T12:17:57;12.30;99.90
10678;DHT22;5387;48.722;9.110;2023-10-31T12:20:25;12.40;99.90
10678;DHT22;5387;48.722;9.110;2023-10-31T12:23:02;12.40;99.90
10678;DHT22;5387;48.722;9.110;2023-10-31T12:25:29;12.50;99.90
10678;DHT22;5387;48.722;9.110;2023-10-31T12:27:58;12.50;99.90
10678;DHT22;5387;48.722;9.110;2023-10-31T12:30:25;12.60;99.90
10678;DHT22;5387;48.722;9.110;2023-10-31T12:32:55;12.60;99.90
10678;DHT22;5387;48.722;9.110;2023-10-31T12:35:23;12.60;99.90
10678;DHT22;5387;48.722;9.110;2023-10-31T12:37:51;12.40;99.90
10678;DHT22;5387;48.722;9.110;2023-10-31T12:40:19;12.40;99.90
10678;DHT22;5387;48.722;9.110;2023-10-31T12:42:47;12.30;99.90
10678;DHT22;5387;48.722;9.110;2023-10-31T12:45:15;12.20;99.90
10678;DHT22;5387;48.722;9.110;2023-10-31T12:47:42;12.00;99.90
10678;DHT22;5387;48.722;9.110;2023-10-31T12:50:13;11.70;99.90
10678;DHT22;5387;48.722;9.110;2023-10-31T12:52:47;11.50;99.90
10678;DHT22;5387;48.722;9.110;2023-10-31T12:55:15;11.30;99.90
10678;DHT22;5387;48.722;9.110;2023-10-31T12:57:42;11.10;99.90
10678;DHT22;5387;48.722;9.110;2023-10-31T13:00:10;11.00;99.90
10678;DHT22;5387;48.722;9.110;2023-10-31T13:02:38;11.10;99.90
10678;DHT22;5387;48.722;9.110;2023-10-31T13:05:12;11.20;99.90
10678;DHT22;5387;48.722;9.110;2023-10-31T13:07:40;11.40;99.90
10678;DHT22;5387;48.722;9.110;2023-10-31T13:10:08;11.50;99.90
10678;DHT22;5387;48.722;9.110;2023-10-31T13:12:35;11.50;99.90
10678;DHT22;5387;48.722;9.110;2023-10-31T13:15:03;11.50;99.90
10678;DHT22;5387;48.722;9.110;2023-10-31T13:17:31;11.60;99.90
10678;DHT22;5387;48.722;9.110;2023-10-31T13:19:58;11.70;99.90
10678;DHT22;5387;48.722;9.110;2023-10-31T13:22:26;11.60;99.90
10678;DHT22;5387;48.722;9.110;2023-10-31T13:24:52;11.80;99.90
10678;DHT22;5387;48.722;9.110;2023-10-31T13:27:19;11.80;99.90
10678;DHT22;5387;48.722;9.110;2023-10-31T13:29:46;12.00;99.90
10678;DHT22;5387;48.722;9.110;2023-10-31T13:32:15;12.20;99.90
10678;DHT22;5387;48.722;9.110;2023-10-31T13:34:42;12.70;99.90
10678;DHT22;5387;48.722;9.110;2023-10-31T13:37:09;12.90;99.90
10678;DHT22;5387;48.722;9.110;2023-10-31T13:39:37;13.00;99.90
10678;DHT22;5387;48.722;9.110;2023-10-31T13:42:04;13.00;99.90
10678;DHT22;5387;48.722;9.110;2023-10-31T13:44:31;12.80;99.90
10678;DHT22;5387;48.722;9.110;2023-10-31T13:46:59;12.80;99.90
10678;DHT22;5387;48.722;9.110;2023-10-31T13:49:26;12.60;99.90
10678;DHT22;5387;48.722;9.110;2023-10-31T13:51:53;12.60;99.90
10678;DHT22;5387;48.722;9.110;2023-10-31T13:54:20;12.70;99.90
10678;DHT22;5387;48.722;9.110;2023-10-31T13:56:48;12.80;99.90
10678;DHT22;5387;48.722;9.110;2023-10-31T13:59:15;12.90;99.90
10678;DHT22;5387;48.722;9.110;2023-10-31T14:01:44;12.90;99.90
10678;DHT22;5387;48.722;9.110;2023-10-31T14:04:12;13.00;99.90
10678;DHT22;5387;48.722;9.110;2023-10-31T14:06:39;12.80;99.90
10678;DHT22;5387;48.722;9.110;2023-10-31T14:09:08;12.70;99.90
10678;DHT22;5387;48.722;9.110;2023-10-31T14:11:36;12.80;99.90
10678;DHT22;5387;48.722;9.110;2023-10-31T14:14:04;12.80;99.90
10678;DHT22;5387;48.722;9.110;2023-10-31T14:16:34;13.00;99.90
10678;DHT22;5387;48.722;9.110;2023-10-31T14:19:01;13.10;99.90
10678;DHT22;5387;48.722;9.110;2023-10-31T14:21:28;13.10;99.90
10678;DHT22;5387;48.722;9.110;2023-10-31T14:23:55;13.00;99.90
10678;DHT22;5387;48.722;9.110;2023-10-31T14:26:23;12.90;99.90
10678;DHT22;5387;48.722;9.110;2023-10-31T14:28:50;12.90;99.90
10678;DHT22;5387;48.722;9.110;2023-10-31T14:31:18;12.90;99.90
10678;DHT22;5387;48.722;9.110;2023-10-31T14:33:46;12.80;99.90
10678;DHT22;5387;48.722;9.110;2023-10-31T14:36:13;12.80;99.90
10678;DHT22;5387;48.722;9.110;2023-10-31T14:38:40;12.70;99.90
10678;DHT22;5387;48.722;9.110;2023-10-31T14:41:08;12.70;99.90
10678;DHT22;5387;48.722;9.110;2023-10-31T14:43:35;12.60;99.90
10678;DHT22;5387;48.722;9.110;2023-10-31T14:46:02;12.50;99.90
10678;DHT22;5387;48.722;9.110;2023-10-31T14:48:31;12.50;99.90
10678;DHT22;5387;48.722;9.110;2023-10-31T14:50:58;12.40;99.90
10678;DHT22;5387;48.722;9.110;2023-10-31T14:53:25;12.40;99.90
10678;DHT22;5387;48.722;9.110;2023-10-31T14:55:52;12.40;99.90
10678;DHT22;5387;48.722;9.110;2023-10-31T14:58:18;12.30;99.90
10678;DHT22;5387;48.722;9.110;2023-10-31T15:00:45;12.30;99.90
10678;DHT22;5387;48.722;9.110;2023-10-31T15:03:12;12.30;99.90
10678;DHT22;5387;48.722;9.110;2023-10-31T15:05:40;12.30;99.90
10678;DHT22;5387;48.722;9.110;2023-10-31T15:08:07;12.10;99.90
10678;DHT22;5387;48.722;9.110;2023-10-31T15:10:34;12.00;99.90
10678;DHT22;5387;48.722;9.110;2023-10-31T15:13:01;11.90;99.90
10678;DHT22;5387;48.722;9.110;2023-10-31T15:15:28;11.90;99.90
10678;DHT22;5387;48.722;9.110;2023-10-31T15:17:55;11.80;99.90
10678;DHT22;5387;48.722;9.110;2023-10-31T15:20:21;11.70;99.90
10678;DHT22;5387;48.722;9.110;2023-10-31T15:22:49;11.70;99.90
10678;DHT22;5387;48.722;9.110;2023-10-31T15:25:16;11.70;99.90
10678;DHT22;5387;48.722;9.110;2023-10-31T15:27:43;11.70;99.90
10678;DHT22;5387;48.722;9.110;2023-10-31T15:30:10;11.60;99.90
10678;DHT22;5387;48.722;9.110;2023-10-31T15:32:38;11.60;99.90
10678;DHT22;5387;48.722;9.110;2023-10-31T15:35:05;11.60;99.90
10678;DHT22;5387;48.722;9.110;2023-10-31T15:37:32;11.60;99.90
10678;DHT22;5387;48.722;9.110;2023-10-31T15:40:00;11.50;99.90
10678;DHT22;5387;48.722;9.110;2023-10-31T15:42:28;11.30;99.90
10678;DHT22;5387;48.722;9.110;2023-10-31T15:44:55;11.10;99.90
10678;DHT22;5387;48.722;9.110;2023-10-31T15:47:22;10.90;99.90
10678;DHT22;5387;48.722;9.110;2023-10-31T15:49:49;10.70;99.90
10678;DHT22;5387;48.722;9.110;2023-10-31T15:52:16;10.70;99.90